Index of /cds/PHPworkshop_AW/Katalog

[ICO]NameLast modifiedSizeDescription

[PARENTDIR]Parent Directory  -  
[DIR]FS_BILD/2002-11-23 06:41 -  
[DIR]IMAGES/2002-11-23 06:41 -  
[DIR]IS_BILD/2002-11-23 06:41 -  
[DIR]SHOP/2002-11-23 06:41 -  
[DIR]U4/2002-11-23 06:41 -  
[TXT]382731036.htm2001-03-30 10:23 4.7KDas Mathematica Buch
[TXT]382731071.htm2001-03-30 10:23 3.7KDer Macintosh im WWW
[TXT]382731077.htm2001-03-30 10:23 5.5KMATLAB und SIMULINK
[TXT]382731097.htm2001-03-30 10:23 4.9KOracle 7.3
[TXT]382731121.htm2001-03-30 10:23 4.4KDirector 5
[TXT]382731134.htm2001-03-30 10:23 4.6KSPSS fr Windows Version 6.1 - Scientific Computing
[TXT]382731136.htm2001-03-30 10:23 5.3KAdministration des SAP-Systems R/3
[TXT]382731142.htm2001-03-30 10:23 5.1KIntranetWare
[TXT]382731145.htm2001-03-30 10:23 4.8KTCP/IP
[TXT]382731152.htm2001-03-30 10:23 5.4KC++-Programmierung
[TXT]382731207.htm2001-03-30 10:23 5.5KVBA-Programmierung mit Excel 97
[TXT]382731208.htm2001-03-30 10:23 5.5KMathematica
[TXT]382731212.htm2001-03-30 10:23 5.2KAccess 97 professionell
[TXT]382731228.htm2001-03-30 10:23 5.2KVBA mit Excel 97 lernen
[TXT]382731229.htm2001-03-30 10:23 4.8KLaTeX - Band 2: Erg„nzungen
[TXT]382731240.htm2001-03-30 10:23 4.3KVisual C++ 5.0
[TXT]382731266.htm2001-03-30 10:23 5.5KVBA-Programmierung mit Access 97
[TXT]382731275.htm2001-03-30 10:23 5.0KMehr Effektiv C++ programmieren
[TXT]382731280.htm2001-03-30 10:23 5.2KWindows NT 4.0 Workstation
[TXT]382731282.htm2001-03-30 10:23 5.2KPattern-orientierte Software-Architektur
[TXT]382731285.htm2001-03-30 10:23 5.1KJavaScript 1.2
[TXT]382731290.htm2001-03-30 10:23 4.4KC/C++ Workshop
[TXT]382731302.htm2001-03-30 10:23 4.9KPC-Hardwarebuch
[TXT]382731305.htm2001-03-30 10:23 4.9KEffektiv C++ programmieren
[TXT]382731307.htm2001-03-30 10:23 5.0KHTML 4
[TXT]382731310.htm2001-03-30 10:23 5.2KOracle8 fr den DBA
[TXT]382731314.htm2001-03-30 10:23 5.4KLotus Notes 4.6 und Domino
[TXT]382731325.htm2001-03-30 10:23 5.1KInstant CORBA
[TXT]382731327.htm2001-03-30 10:23 5.0KMac OS 8.5
[TXT]382731334.htm2001-03-30 10:23 5.0KProjektmanagement mit SAP R/3
[TXT]382731342.htm2001-03-30 10:23 5.3KC++-Programmierung lernen
[TXT]382731344.htm2001-03-30 10:23 5.5KInternet-Kryptographie
[TXT]382731345.htm2001-03-30 10:23 5.0KSQL - Der Standard
[TXT]382731347.htm2001-03-30 10:23 5.6KOracle8 effizient einsetzen
[TXT]382731348.htm2001-03-30 10:23 5.3KQuarkXPress 4
[TXT]382731353.htm2001-03-30 10:23 5.4KMicrosoft Exchange Server 5.5
[TXT]382731354.htm2001-03-30 10:23 5.3KNetworking mit Windows NT 4.0
[TXT]382731356.htm2001-03-30 10:23 5.4KSAP R/3-Systemadministration
[TXT]382731358.htm2001-03-30 10:23 5.5KGesch„ftsprozesse im Internet mit SAP R/3
[TXT]382731367.htm2001-03-30 10:23 5.4KExcel fr Controller
[TXT]382731368.htm2001-03-30 10:23 5.7KGo To C-Programmierung
[TXT]382731371.htm2001-03-30 10:23 5.1KVisual Basic 6.0 lernen
[TXT]382731376.htm2001-03-30 10:23 5.3KGo To Visual Basic 6.0
[TXT]382731378.htm2001-03-30 10:23 5.2KGo To Perl 5
[TXT]382731379.htm2001-03-30 10:23 5.1KDie Technologie des SAP-Systems R/3
[TXT]382731380.htm2001-03-30 10:23 5.6KSAP R/3-Einfhrung mit ASAP
[TXT]382731381.htm2001-03-30 10:23 4.9KRelationale Datenbanken
[TXT]382731385.htm2001-03-30 10:23 5.3KCOM
[TXT]382731388.htm2001-03-30 10:23 5.4KSAP R/3-Prozeáanalyse mit Knowledge Maps
[TXT]382731389.htm2001-03-30 10:23 5.4KDirectX-Programmierung mit Visual C++
[TXT]382731393.htm2001-03-30 10:23 5.3KWissensmanagement
[TXT]382731394.htm2001-03-30 10:23 5.2KVisual C++ 6
[TXT]382731400.htm2001-03-30 10:23 5.5KSAP R/3-Performanceoptimierung
[TXT]382731402.htm2001-03-30 10:23 5.5KOLAP - Multidimensionale Datenbanken
[TXT]382731403.htm2001-03-30 10:23 5.1KClustering mit Windows NT
[TXT]382731405.htm2001-03-30 10:23 5.3KC-Programmierung lernen
[TXT]382731407.htm2001-03-30 10:23 5.2KUML - Unified Modeling Language
[TXT]382731409.htm2001-03-30 10:23 5.0KEffektiv Tcl/Tk programmieren
[TXT]382731410.htm2001-03-30 10:23 5.3KDie Java 2 Fibel
[TXT]382731413.htm2001-03-30 10:23 5.5KAbenteuer Kryptologie
[TXT]382731414.htm2001-03-30 10:23 5.1KCisco TCP/IP-Routing
[TXT]382731416.htm2001-03-30 10:23 5.2KMatlab 5 fr Ingenieure
[TXT]382731417.htm2001-03-30 10:23 5.5KSCSI-Bus und IDE-Schnittstelle
[TXT]382731418.htm2001-03-30 10:23 5.4KMicrosoft SQL Server 7
[TXT]382731420.htm2001-03-30 10:23 5.0KIPv6 - die neue Generation
[TXT]382731422.htm2001-03-30 10:23 5.2KEDV-Grundwissen
[TXT]382731423.htm2001-03-30 10:23 5.4KToolBook II Instructor 7
[TXT]382731426.htm2001-03-30 10:24 5.1KInformationssicherheit im Unternehmen
[TXT]382731428.htm2001-03-30 10:24 5.6KVisual Basic 6
[TXT]382731429.htm2001-03-30 10:24 5.3KVisual Basic Datenbankprogrammierung
[TXT]382731431.htm2001-03-30 10:24 5.5KStatistische Anwendungen im Internet
[TXT]382731433.htm2001-03-30 10:24 5.4KSPSS
[TXT]382731434.htm2001-03-30 10:24 5.1KAnalysemuster
[TXT]382731435.htm2001-03-30 10:24 4.9KLinux-Unix-Grundlagen
[TXT]382731438.htm2001-03-30 10:24 5.2KOracle Designer R 2.1
[TXT]382731439.htm2001-03-30 10:24 5.3KGo To VBA mit Office 2000
[TXT]382731442.htm2001-03-30 10:24 5.4KTechnische Dokumentation mit Adobe FrameMaker 5.5
[TXT]382731445.htm2001-03-30 10:24 5.2KDer Data Warehouse-Spezialist
[TXT]382731449.htm2001-03-30 10:24 5.3KAnwendungen entwickeln unter Linux
[TXT]382731454.htm2001-03-30 10:24 5.3KMATLAB und SIMULINK
[TXT]382731459.htm2001-03-30 10:24 5.1KOffice 98 fr den Mac
[TXT]382731460.htm2001-03-30 10:24 5.3KMicrosoft OLAP Services
[TXT]382731461.htm2001-03-30 10:24 5.1KPC-Hardwarebuch
[TXT]382731462.htm2001-03-30 10:24 5.1KSAP R/3 - Personalwirtschaft
[TXT]382731463.htm2001-03-30 10:24 5.1KSAP R/3 - Basissystem
[TXT]382731464.htm2001-03-30 10:24 5.1KSAP R/3 - Gemeinkostencontrolling
[TXT]382731465.htm2001-03-30 10:24 5.1KSAP R/3 - Finanzwesen
[TXT]382731466.htm2001-03-30 10:24 5.1KSAP R/3 - Materialwirtschaft
[TXT]382731467.htm2001-03-30 10:24 5.1KSAP R/3 - Einfhrung
[TXT]382731468.htm2001-03-30 10:24 5.2KGo To Visual C++ 6
[TXT]382731470.htm2001-03-30 10:24 5.5KNetWare 5
[TXT]382731473.htm2001-03-30 10:24 5.5KDigital Audio/Video
[TXT]382731474.htm2001-03-30 10:24 5.2KKomponenten entwerfen mit der C++ STL
[TXT]382731476.htm2001-03-30 10:24 5.3KLinux Kernelprogrammierung
[TXT]382731477.htm2001-03-30 10:24 5.3KKDE- und Qt-Programmierung
[TXT]382731480.htm2001-03-30 10:24 4.6KC-Kompaktreferenz
[TXT]382731482.htm2001-03-30 10:24 5.4KDelphi 5 nachschlagen und verstehen
[TXT]382731483.htm2001-03-30 10:24 4.9KSAP Business Workflow
[TXT]382731485.htm2001-03-30 10:24 5.4KOracle8i und Java
[TXT]382731486.htm2001-03-30 10:24 4.9KDas UML-Benutzerhandbuch
[TXT]382731487.htm2001-03-30 10:24 5.6KObjektorientierter Softwareentwurf mit UML
[TXT]382731489.htm2001-03-30 10:24 4.9KCTI und Call Center
[TXT]382731492.htm2001-03-30 10:24 5.2KScannen
[TXT]382731493.htm2001-03-30 10:24 5.3KDomino.Solutions
[TXT]382731495.htm2001-03-30 10:24 5.3KGo To C++-Programmierung
[TXT]382731496.htm2001-03-30 10:24 5.5KSAP R/3 prozeáorientiert anwenden
[TXT]382731500.htm2001-03-30 10:24 5.5KLotus Notes 5 und Domino
[TXT]382731504.htm2001-03-30 10:24 5.1KSAP R/3-Systeme effizient testen
[TXT]382731506.htm2001-03-30 10:24 5.1KDB 2 Universal Database
[TXT]382731507.htm2001-03-30 10:24 5.3KAdobe Illustrator 8
[TXT]382731508.htm2001-03-30 10:24 5.4KFrameMaker + SGML 5.5
[TXT]382731510.htm2001-03-30 10:24 4.9KLinux-Systemadministration
[TXT]382731511.htm2001-03-30 10:24 5.4KLinux-Unix-Shells
[TXT]382731512.htm2001-03-30 10:24 5.0KLinux-Unix-Systemprogrammierung
[TXT]382731513.htm2001-03-30 10:24 5.4KDas Assembler-Buch
[TXT]382731514.htm2001-03-30 10:24 5.3K3D Studio MAX R3
[TXT]382731515.htm2001-03-30 10:24 5.3KSQL lernen
[TXT]382731519.htm2001-03-30 10:24 5.5KMAXON CINEMA 4D
[TXT]382731520.htm2001-03-30 10:24 5.3KAnwendungsentwicklung unter Lotus Notes/Domino 5
[TXT]382731522.htm2001-03-30 10:24 5.4KMicrosoft Site Server 3.0
[TXT]382731524.htm2001-03-30 10:24 5.2KDie MacFibel
[TXT]382731525.htm2001-03-30 10:24 5.2KGo To VBA mit Excel 2000
[TXT]382731526.htm2001-03-30 10:24 5.6KJava-Programmierung mit IBM VisualAge
[TXT]382731529.htm2001-03-30 10:24 5.4KElectronic Commerce
[TXT]382731530.htm2001-03-30 10:24 5.0KExcel 2000 programmieren
[TXT]382731531.htm2001-03-30 10:24 5.6KC++ fr Naturwissenschaftler
[TXT]382731533.htm2001-03-30 10:24 5.3KExcel in Naturwissenschaft und Technik
[TXT]382731534.htm2001-03-30 10:24 5.1KEnterprise JavaBeansTM
[TXT]382731535.htm2001-03-30 10:24 5.2KPerl
[TXT]382731536.htm2001-03-30 10:24 4.7KLinux-Unix-Kurzreferenz
[TXT]382731538.htm2001-03-30 10:24 5.5KDer Apache-Webserver
[TXT]382731540.htm2001-03-30 10:24 5.5KExcel 2000 professionell
[TXT]382731541.htm2001-03-30 10:24 5.4KAccess 2000 professionell
[TXT]382731543.htm2001-03-30 10:24 5.0KDer Rational Unified Process
[TXT]382731544.htm2001-03-30 10:24 5.0KEntwurfsmuster anwenden
[TXT]382731545.htm2001-03-30 10:24 5.4KMit eCommerce zum Markterfolg
[TXT]382731546.htm2001-03-30 10:24 5.0KInternet-Technologien der Zukunft
[TXT]382731547.htm2001-03-30 10:24 5.5KAccess 2000 programmieren
[TXT]382731548.htm2001-03-30 10:24 5.5KFrontPage 2000
[TXT]382731549.htm2001-03-30 10:24 5.4KVBA mit Office 2000 lernen
[TXT]382731550.htm2001-03-30 10:24 5.5KVBA mit Word 2000 lernen
[TXT]382731552.htm2001-03-30 10:24 5.4KVerteilte Komponenten und Datenbankanbindung
[TXT]382731553.htm2001-03-30 10:24 5.4KABAP/4
[TXT]382731556.htm2001-03-30 10:24 5.4KJini
[TXT]382731557.htm2001-03-30 10:24 5.1KLATEX
[TXT]382731558.htm2001-03-30 10:24 5.9KRelationale Datenbanken und SQL
[TXT]382731560.htm2001-03-30 10:24 5.2KDer Weg zum Data Warehouse
[TXT]382731561.htm2001-03-30 10:24 5.3KSAP R/3 Systeme effizient testen
[TXT]382731562.htm2001-03-30 10:24 5.4KNotes/Domino effektiv nutzen
[TXT]382731563.htm2001-03-30 10:24 5.1KMicrosoft Active Directory
[TXT]382731564.htm2001-03-30 10:24 5.0KFlash 5
[TXT]382731566.htm2001-03-30 10:24 4.9KDer Netzwerkadministrator
[TXT]382731567.htm2001-03-30 10:24 5.4KSicherheit und Kryptographie in Java
[TXT]382731568.htm2001-03-30 10:24 5.3KGo To Delphi 5
[TXT]382731569.htm2001-03-30 10:24 5.4KDelphi 5
[TXT]382731570.htm2001-03-30 10:24 5.4KDelphi 5 - Datenbankprogrammierung
[TXT]382731571.htm2001-03-30 10:24 5.2KDelphi 5 lernen
[TXT]382731572.htm2001-03-30 10:24 5.6KVBA mit Excel 2000 lernen
[TXT]382731573.htm2001-03-30 10:24 5.6KVBA mit Access 2000 lernen
[TXT]382731574.htm2001-03-30 10:24 5.1KxDSL: Eine Einfhrung
[TXT]382731575.htm2001-03-30 10:24 5.0KEinfhrung in die PC-Grundlagen
[TXT]382731576.htm2001-03-30 10:24 5.6KWissenschaftliche Arbeiten schreiben mit Word
[TXT]382731578.htm2001-03-30 10:24 4.5KMobilkommunikation
[TXT]382731579.htm2001-03-30 10:24 5.1KDirector 8
[TXT]382731580.htm2001-03-30 10:24 5.1KPhotoshop 5/5.5 WOW!
[TXT]382731581.htm2001-03-30 10:24 5.1KWebdesign mit Adobe Photoshop 5.5
[TXT]382731582.htm2001-03-30 10:24 5.0KFreehand 9
[TXT]382731583.htm2001-03-30 10:24 4.3KProgrammierpraxis
[TXT]382731585.htm2001-03-30 10:24 4.9KWindows 2000-Terminaldienste
[TXT]382731588.htm2001-03-30 10:24 4.5KSPSS Version 9
[TXT]382731589.htm2001-03-30 10:24 5.0KDer IT-Trainer
[TXT]382731590.htm2001-03-30 10:24 5.1KeProcurement
[TXT]382731591.htm2001-03-30 10:24 5.0KBusiness Intelligence
[TXT]382731592.htm2001-03-30 10:24 5.1KLokale Netze - Die Technik frs 21. Jahrhundert
[TXT]382731594.htm2001-03-30 10:24 5.1KCorporate Servicemanagement
[TXT]382731595.htm2001-03-30 10:24 5.6KNetworking Essentials
[TXT]382731597.htm2001-03-30 10:24 5.6KWindows NT Server 4.0 in the Enterprise
[TXT]382731598.htm2001-03-30 10:24 5.6KWindows NT Workstation 4.0
[TXT]382731599.htm2001-03-30 10:24 5.9KDer Visual FoxPro 6.0 Anwendungsentwickler
[TXT]382731600.htm2001-03-30 10:24 5.3KSAP-Prozesse: Finanzwesen und Controlling
[TXT]382731601.htm2001-03-30 10:24 5.4KSAP-Prozesse: Planung, Beschaffung und Produktion
[TXT]382731602.htm2001-03-30 10:24 5.4KSAP-Prozesse: Vertrieb und Customer Service
[TXT]382731603.htm2001-03-30 10:24 5.2KSAP-Prozesse mit Knowledge Maps analysieren und verstehen
[TXT]382731605.htm2001-03-30 10:24 5.2KJava lernen
[TXT]382731610.htm2001-03-30 10:24 5.2KVertriebslogistik SAP R/3
[TXT]382731615.htm2001-03-30 10:24 5.0KStreaming Media im Business-Bereich
[TXT]382731616.htm2001-03-30 10:24 5.3KLotus Domino.doc
[TXT]382731617.htm2001-03-30 10:24 4.9KUML konzentriert - 2. aktualisierte Auflage
[TXT]382731618.htm2001-03-30 10:24 5.5KWindows 2000 Server
[TXT]382731619.htm2001-03-30 10:24 5.1KNetzwerkprotokolle in Cisco-Netzwerken
[TXT]382731620.htm2001-03-30 10:24 5.4KLotus Notes und Domino im Einsatz
[TXT]382731621.htm2001-03-30 10:24 5.0KDreamweaver 3
[TXT]382731622.htm2001-03-30 10:24 5.1KWeb Graphics - 3., erweiterte Auflage
[TXT]382731623.htm2001-03-30 10:24 4.7KDer Oracle-Entwickler
[TXT]382731624.htm2001-03-30 10:24 5.6KMicrosoft Exchange Server 5.5
[TXT]382731625.htm2001-03-30 10:24 5.5KTCP/IP fr Windows NT 4.0
[TXT]382731626.htm2001-03-30 10:24 5.3KVisio 2000 professionell
[TXT]382731628.htm2001-03-30 10:24 5.6KOffice 2000 fr Small Business
[TXT]382731629.htm2001-03-30 10:24 4.9KMit LATEX ins Web
[TXT]382731630.htm2001-03-30 10:24 4.9KRefactoring
[TXT]382731631.htm2001-03-30 10:24 5.4KLinux-Server im kommerziellen Netzwerk
[TXT]382731632.htm2001-03-30 10:24 5.2KPhotoshop 5.5 und ImageReady 2.0
[TXT]382731634.htm2001-03-30 10:24 5.1KIPSec
[TXT]382731635.htm2001-03-30 10:24 5.5KJava Standard Libraries
[TXT]382731636.htm2001-03-30 10:24 5.3KXML in der Praxis
[TXT]382731637.htm2001-03-30 10:24 5.3KWindows- und BackOffice-Scripting
[TXT]382731638.htm2001-03-30 10:24 5.0KJava-Programmierung mit Borland JBuilder 4.0
[TXT]382731639.htm2001-03-30 10:24 5.3KMatlab und Simulink lernen
[TXT]382731641.htm2001-03-30 10:24 5.2KDer Webmaster, 2.,aktualisierte Auflage
[TXT]382731643.htm2001-03-30 10:24 5.6KElectronic Business
[TXT]382731645.htm2001-03-30 10:24 5.2KSMIL
[TXT]382731646.htm2001-03-30 10:24 5.3KSAP R/3 Der schnelle Einstieg
[TXT]382731647.htm2001-03-30 10:24 5.2KMac OS X Server
[TXT]382731648.htm2001-03-30 10:24 5.3KMac OS 9
[TXT]382731649.htm2001-03-30 10:24 5.5K3D-Grafik: Der schnelle Einstieg mit MAXON CINEMA 4D
[TXT]382731650.htm2001-03-30 10:24 5.3KPerl lernen
[TXT]382731652.htm2001-03-30 10:24 5.2KAgententechnologie: Eine Einfhrung
[TXT]382731653.htm2001-03-30 10:24 5.3KNotes/Domino 5
[TXT]382731654.htm2001-03-30 10:24 5.3KCorelDRAW Wow!
[TXT]382731655.htm2001-03-30 10:24 4.7KASP-Programmierpraxis
[TXT]382731656.htm2001-03-30 10:24 5.3KMicrosoft Active Server Pages
[TXT]382731658.htm2001-03-30 10:24 5.6KLinux, 5. Auflage
[TXT]382731660.htm2001-03-30 10:24 4.9KDie C++-Programmiersprache, 4. Auflage
[TXT]382731661.htm2001-03-30 10:24 5.3KXSL und XPath - verst„ndlich und praxisnah
[TXT]382731662.htm2001-03-30 10:24 5.2KWorkshop C++
[TXT]382731663.htm2001-03-30 10:24 5.1KWorkshop VBA
[TXT]382731664.htm2001-03-30 10:24 5.2KWorkshop Visual Basic 6
[TXT]382731665.htm2001-03-30 10:24 5.2KWorkshop Delphi 5
[TXT]382731666.htm2001-03-30 10:24 4.8KC++
[TXT]382731667.htm2001-03-30 10:24 4.8KVisual Basic 6
[TXT]382731668.htm2001-03-30 10:24 4.8KDelphi 5
[TXT]382731669.htm2001-03-30 10:24 4.7KHTML 4.0
[TXT]382731670.htm2001-03-30 10:24 4.8KJavaScript 1.3
[TXT]382731671.htm2001-03-30 10:24 4.7KJava 2
[TXT]382731672.htm2001-03-30 10:24 4.9KBridges, Router, Switches und Internetworking Protokolle
[TXT]382731673.htm2001-03-30 10:24 5.2KSPSS Version 10
[TXT]382731675.htm2001-03-30 10:24 5.0KKnowledge Communities
[TXT]382731676.htm2001-03-30 10:24 5.1KDirector 8 Workshop
[TXT]382731677.htm2001-03-30 10:24 5.0KMaxon Cinema 4D 6.0
[TXT]382731678.htm2001-03-30 10:24 5.2KGo to COM
[TXT]382731679.htm2001-03-30 10:24 4.8KMultiagentensysteme
[TXT]382731682.htm2001-03-30 10:24 5.1KMaya 3
[TXT]382731687.htm2001-03-30 10:24 5.0KSAP Business Workflow
[TXT]382731688.htm2001-03-30 10:24 5.2KTCP/IP unter Windows
[TXT]382731689.htm2001-03-30 10:24 4.6KDer LATEX-Begleiter
[TXT]382731690.htm2001-03-30 10:24 5.2KStatistik verstehen
[TXT]382731691.htm2001-03-30 10:24 5.3KPython 2
[TXT]382731693.htm2001-03-30 10:24 5.1KWorkshop ASP
[TXT]382731694.htm2001-03-30 10:24 4.9KJava Server und Servlets
[TXT]382731695.htm2001-03-30 10:24 5.2KWML
[TXT]382731697.htm2001-03-30 10:24 4.9KSicherheit im Internet
[TXT]382731698.htm2001-03-30 10:24 5.1KKundenorientiertes Knowledge Management
[TXT]382731699.htm2001-03-30 10:24 5.0KSAP R/3 Finanzwesen
[TXT]382731701.htm2001-03-30 10:24 5.1KSAP R/3 Materialwirtschaft
[TXT]382731702.htm2001-03-30 10:24 5.1KSAP R/3 Gemeinkostencontrolling
[TXT]382731703.htm2001-03-30 10:24 5.5KDer Information Broker
[TXT]382731705.htm2001-03-30 10:24 4.9KWorkshop Java 2
[TXT]382731706.htm2001-03-30 10:24 4.6KWindows NT Server 4.0, 3., aktualisierte Auflage
[TXT]382731709.htm2001-03-30 10:24 5.0KExtreme Programming
[TXT]382731710.htm2001-03-30 10:24 5.3KGo To Java 2, 2. Auflage
[TXT]382731711.htm2001-03-30 10:24 4.9KExceptional C++
[TXT]382731712.htm2001-03-30 10:24 5.3KDas XML-Handbuch
[TXT]382731713.htm2001-03-30 10:24 5.2KGo To C++ Builder 5.0
[TXT]382731715.htm2001-03-30 10:24 5.2KMCSE-Trainer - Special Edition
[TXT]382731717.htm2001-03-30 10:24 5.3KHTML lernen
[TXT]382731718.htm2001-03-30 10:24 5.2KWorkshop JavaScript
[TXT]382731719.htm2001-03-30 10:24 5.0KPerlen der Programmierkunst
[TXT]382731724.htm2001-03-30 10:24 5.3KKomponentenmodelle
[TXT]382731726.htm2001-03-30 10:24 5.1KSAP R/3 Personalwirtschaft
[TXT]382731727.htm2001-03-30 10:24 5.0KSAP R/3 Basissystem
[TXT]382731728.htm2001-03-30 10:24 5.2KOracle Designer R 6i und Developer 6i
[TXT]382731730.htm2001-03-30 10:24 5.1KWebanwendungen mit PHP 4.0 entwickeln
[TXT]382731731.htm2001-03-30 10:24 4.9KDHCP unter Linux
[TXT]382731732.htm2001-03-30 10:24 5.1KMaple
[TXT]382731733.htm2001-03-30 10:24 5.3KOracle-Programmierung
[TXT]382731734.htm2001-03-30 10:24 5.4KDistance Learning mit Lotus Learning Space
[TXT]382731736.htm2001-03-30 10:24 4.6KFrameMaker 6.0
[TXT]382731739.htm2001-03-30 10:24 5.2KAgentenbasierte Software
[TXT]382731740.htm2001-03-30 10:24 4.5KLATEX Erg„nzungen Band 2
[TXT]382731743.htm2001-03-30 10:24 5.1KWebapplication Development mit ColdFusion 4.5
[TXT]382731744.htm2001-03-30 10:24 4.9KcBusiness
[TXT]382731745.htm2001-03-30 10:24 4.8KmCommerce
[TXT]382731747.htm2001-03-30 10:24 4.7KWindows-Programmierung mit C++
[TXT]382731748.htm2001-03-30 10:24 4.3KDebian GNU/Linux-Anwenderhandbuch
[TXT]382731750.htm2001-03-30 10:24 5.1KAdobe Illustrator 9
[TXT]382731751.htm2001-03-30 10:24 5.0KWebdesign mit Adobe Photoshop 6.0
[TXT]382731753.htm2001-03-30 10:24 5.2KKDE- und Qt-Programmierung, 2., aktualisierte Auflage
[TXT]382731756.htm2001-03-30 10:24 4.2KC++ Programmiersprache (Studentenausgabe)
[TXT]382731766.htm2001-03-30 10:24 4.4KWindows 2000 Server
[TXT]382731767.htm2001-03-30 10:24 5.1KeCommerce Websites
[TXT]382731768.htm2001-03-30 10:24 4.9KKiller Content
[TXT]382731769.htm2001-03-30 10:24 4.6KEssential XML
[TXT]382731770.htm2001-03-30 10:24 4.4KWindows 2000 Professional
[TXT]389319301.htm2001-03-30 10:24 4.5KAlgorithmen
[TXT]389319376.htm2001-03-30 10:24 4.6KAlgorithmen in C
[TXT]389319462.htm2001-03-30 10:24 4.6KAlgorithmen in C++
[TXT]389319637.htm2001-03-30 10:24 4.3KObjektorientiertes Programmieren in C++
[TXT]389319666.htm2001-03-30 10:24 4.1KLaTeX
[TXT]389319673.htm2001-03-30 10:24 5.0KObjektorientierte Analyse und Design
[TXT]389319731.htm2001-03-30 10:24 4.6KAnwendungs-Programmierung mit Excel 5.0
[TXT]389319793.htm2001-03-30 10:24 4.7KTcl und Tk
[TXT]389319800.htm2001-03-30 10:24 5.1KObjektorientierte Datenbanken
[TXT]389319826.htm2001-03-30 10:24 4.9KDas LaTeX-Handbuch
[TXT]389319854.htm2001-03-30 10:24 5.0KAngewandte Kryptographie
[TXT]389319875.htm2001-03-30 10:24 5.3KFirewalls und Sicherheit im Internet
[TXT]389319950.htm2001-03-30 10:24 4.9KEntwurfsmuster
[TXT]389319979.htm2001-03-30 10:24 4.5KVBA-Programmierung mit Excel 7
[TXT]389319986.htm2001-03-30 10:24 4.0KIntranetWare
[TXT]389319995.htm2001-03-30 10:24 4.2KSmalltalk
[TXT]Buch.htm2001-03-30 10:26 645KListe
[TXT]EMail.htm2000-06-28 16:41 1.2KEMail
[TXT]Fax.htm2001-03-30 10:26 2.8KFax
[TXT]Faxform.htm2001-03-30 10:26 4.6KFaxformular
[TXT]Index.htm2000-06-28 16:41 1.7KM&T Online
[TXT]Inhalt.htm2000-06-28 16:40 7.6KUnser Buchprogramm
[TXT]Menu.htm2000-05-09 15:58 1.5KStandard-Seite ohne Titel
[TXT]Neu.htm2001-03-30 10:26 2.7KUnser Buchprogramm
[TXT]Ok.htm2000-06-28 16:41 1.4K 
[TXT]Orderlst.htm2001-03-30 10:26 2.3K 
[TXT]Reih_02.htm2001-03-30 10:26 11KListe
[TXT]Reih_04.htm2001-03-30 10:26 22KListe
[TXT]Reih_05.htm2001-03-30 10:26 35KListe
[TXT]Reih_06.htm2001-03-30 10:26 28KListe
[TXT]Reih_07.htm2001-03-30 10:26 15KListe
[TXT]Reih_08.htm2001-03-30 10:26 13KListe
[TXT]Reih_09.htm2001-03-30 10:26 40KListe
[TXT]Reih_10.htm2001-03-30 10:26 8.5KListe
[TXT]Reih_11.htm2001-03-30 10:26 88KListe
[TXT]Reih_12.htm2001-03-30 10:26 24KListe
[TXT]Reih_13.htm2001-03-30 10:26 8.5KListe
[TXT]Reih_14.htm2001-03-30 10:26 15KListe
[TXT]Reih_15.htm2001-03-30 10:26 13KListe
[TXT]Reih_16.htm2001-03-30 10:26 26KListe
[TXT]Reih_17.htm2001-03-30 10:26 17KListe
[TXT]Reih_18.htm2001-03-30 10:26 11KListe
[TXT]Reih_19.htm2001-03-30 10:26 18KListe
[TXT]Reih_20.htm2001-03-30 10:26 31KListe
[TXT]Reih_21.htm2001-03-30 10:26 15KListe
[TXT]Reih_22.htm2001-03-30 10:26 6.3KListe
[TXT]Reih_23.htm2001-03-30 10:26 57KListe
[TXT]Reih_24.htm2001-03-30 10:26 26KListe
[TXT]Reih_25.htm2001-03-30 10:26 15KListe
[TXT]Reih_26.htm2001-03-30 10:26 8.6KListe
[TXT]Reih_27.htm2001-03-30 10:26 39KListe
[TXT]Reih_n01.htm2001-03-30 10:26 6.4KListe
[TXT]Reih_n04.htm2001-03-30 10:26 6.4KListe
[TXT]Reih_n05.htm2001-03-30 10:26 11KListe
[TXT]Reih_n06.htm2001-03-30 10:26 15KListe
[TXT]Reih_n07.htm2001-03-30 10:26 6.4KListe
[TXT]Reih_n08.htm2001-03-30 10:26 6.4KListe
[TXT]Reih_n11.htm2001-03-30 10:26 6.4KListe
[TXT]Reih_n12.htm2001-03-30 10:26 4.1KListe
[TXT]Reih_n14.htm2001-03-30 10:26 4.1KListe
[TXT]Reih_n15.htm2001-03-30 10:26 6.3KListe
[TXT]Reih_n16.htm2001-03-30 10:26 6.3KListe
[TXT]Reih_n17.htm2001-03-30 10:26 6.4KListe
[TXT]Reih_n19.htm2001-03-30 10:26 6.3KListe
[TXT]Reih_n20.htm2001-03-30 10:26 13KListe
[TXT]Reih_n21.htm2001-03-30 10:26 4.1KListe
[TXT]Reih_n23.htm2001-03-30 10:26 11KListe
[TXT]Reih_n24.htm2001-03-30 10:26 4.1KListe
[TXT]Reih_n25.htm2001-03-30 10:26 13KListe
[TXT]Reih_n27.htm2001-03-30 10:26 11KListe
[TXT]Reih_n29.htm2001-03-30 10:26 17KListe
[TXT]Reihe.htm2001-03-30 10:26 19KUnser Buchprogramm
[TXT]Reihen.htm2001-03-30 10:26 16KUnser Buchprogramm
[TXT]Sach_02.htm2001-03-30 10:26 11KListe
[TXT]Sach_03.htm2001-03-30 10:26 11KListe
[TXT]Sach_06.htm2001-03-30 10:26 13KListe
[TXT]Sach_07.htm2001-03-30 10:26 13KListe
[TXT]Sach_10.htm2001-03-30 10:26 26KListe
[TXT]Sach_11.htm2001-03-30 10:26 26KListe
[TXT]Sach_12.htm2001-03-30 10:26 39KListe
[TXT]Sach_13.htm2001-03-30 10:26 39KListe
[TXT]Sach_14.htm2001-03-30 10:26 48KListe
[TXT]Sach_15.htm2001-03-30 10:26 48KListe
[TXT]Sach_16.htm2001-03-30 10:26 28KListe
[TXT]Sach_17.htm2001-03-30 10:26 28KListe
[TXT]Sach_18.htm2001-03-30 10:26 42KListe
[TXT]Sach_19.htm2001-03-30 10:26 8.6KListe
[TXT]Sach_20.htm2001-03-30 10:26 4.2KListe
[TXT]Sach_21.htm2001-03-30 10:26 60KListe
[TXT]Sach_22.htm2001-03-30 10:26 17KListe
[TXT]Sach_23.htm2001-03-30 10:26 6.3KListe
[TXT]Sach_24.htm2001-03-30 10:27 152KListe
[TXT]Sach_26.htm2001-03-30 10:27 62KListe
[TXT]Sach_29.htm2001-03-30 10:27 31KListe
[TXT]Sach_n10.htm2001-03-30 10:27 6.3KListe
[TXT]Sach_n11.htm2001-03-30 10:27 6.3KListe
[TXT]Sach_n12.htm2001-03-30 10:27 11KListe
[TXT]Sach_n13.htm2001-03-30 10:27 11KListe
[TXT]Sach_n14.htm2001-03-30 10:27 11KListe
[TXT]Sach_n15.htm2001-03-30 10:27 11KListe
[TXT]Sach_n16.htm2001-03-30 10:27 4.1KListe
[TXT]Sach_n17.htm2001-03-30 10:27 17KListe
[TXT]Sach_n18.htm2001-03-30 10:27 11KListe
[TXT]Sach_n20.htm2001-03-30 10:27 13KListe
[TXT]Sach_n21.htm2001-03-30 10:27 13KListe
[TXT]Sach_n22.htm2001-03-30 10:27 4.1KListe
[TXT]Sach_n23.htm2001-03-30 10:27 4.1KListe
[TXT]Sach_n24.htm2001-03-30 10:27 37KListe
[TXT]Sach_n26.htm2001-03-30 10:27 8.6KListe
[TXT]Sach_n29.htm2001-03-30 10:27 20KListe
[TXT]Sachgeb.htm2001-03-30 10:27 9.9KUnser Buchprogramm
[TXT]Sachgebn.htm2001-03-30 10:27 8.4KUnser Buchprogramm
[TXT]Software.htm2000-12-12 09:48 1.4KListe
[TXT]Titel.htm2001-03-30 10:27 2.4KStandard-Seite ohne Titel
[TXT]Verl_02.htm2001-03-30 10:27 521KListe
[TXT]Verl_n02.htm2001-03-30 10:27 125KListe
[TXT]Verlage.htm2001-03-30 10:27 2.9KUnser Buchprogramm
[TXT]Verlagen.htm2001-03-30 10:27 2.9KUnser Buchprogramm
[TXT]banner_k.htm2000-06-28 16:42 5.1Kbanner
[TXT]dir.php2002-07-21 00:10 5.1Kwww.dadanini.com -
[TXT]index_k.htm2000-05-18 13:57 715 Untitled Document
[TXT]nav_k.htm2000-06-28 16:42 5.8KUnser Buchprogramm
[TXT]result.htm2001-03-30 10:26 1.6K 
[TXT]search.htm2001-03-30 10:27 3.6K 
[TXT]titel_k.htm2001-03-30 10:27 1.9Kindex

Apache/2.4.25 (Win32) OpenSSL/1.0.2j PHP/7.1.2 Server at live.dadanini.at Port 80